sensor_id;sensor_type;location;lat;lon;timestamp;temperature;humidity
6824;DHT22;58633;49.470;11.004;2022-08-01T00:06:13;24.10;52.60
6824;DHT22;58633;49.470;11.004;2022-08-01T00:08:38;23.70;52.10
6824;DHT22;58633;49.470;11.004;2022-08-01T00:15:56;23.90;52.60
6824;DHT22;58633;49.470;11.004;2022-08-01T00:23:13;23.80;53.00
6824;DHT22;58633;49.470;11.004;2022-08-01T00:25:38;23.70;53.10
6824;DHT22;58633;49.470;11.004;2022-08-01T00:30:34;23.60;53.20
6824;DHT22;58633;49.470;11.004;2022-08-01T00:33:00;23.50;53.40
6824;DHT22;58633;49.470;11.004;2022-08-01T00:35:25;23.50;53.30
6824;DHT22;58633;49.470;11.004;2022-08-01T00:37:51;23.50;53.40
6824;DHT22;58633;49.470;11.004;2022-08-01T00:40:17;23.60;53.70
6824;DHT22;58633;49.470;11.004;2022-08-01T00:42:42;24.10;54.10
6824;DHT22;58633;49.470;11.004;2022-08-01T00:45:08;23.40;53.60
6824;DHT22;58633;49.470;11.004;2022-08-01T00:47:34;23.30;53.40
6824;DHT22;58633;49.470;11.004;2022-08-01T00:49:59;23.30;53.10
6824;DHT22;58633;49.470;11.004;2022-08-01T00:57:17;23.40;53.00
6824;DHT22;58633;49.470;11.004;2022-08-01T01:02:08;23.20;52.50
6824;DHT22;58633;49.470;11.004;2022-08-01T01:04:34;23.30;52.40
6824;DHT22;58633;49.470;11.004;2022-08-01T01:07:09;23.30;52.70
6824;DHT22;58633;49.470;11.004;2022-08-01T01:09:55;23.10;52.80
6824;DHT22;58633;49.470;11.004;2022-08-01T01:12:42;23.10;53.30
6824;DHT22;58633;49.470;11.004;2022-08-01T01:15:15;23.10;53.50
6824;DHT22;58633;49.470;11.004;2022-08-01T01:17:54;23.30;54.00
6824;DHT22;58633;49.470;11.004;2022-08-01T01:20:23;23.10;53.90
6824;DHT22;58633;49.470;11.004;2022-08-01T01:25:40;22.90;53.90
6824;DHT22;58633;49.470;11.004;2022-08-01T01:28:33;22.90;53.80
6824;DHT22;58633;49.470;11.004;2022-08-01T01:31:01;22.80;53.80
6824;DHT22;58633;49.470;11.004;2022-08-01T01:33:29;22.80;53.80
6824;DHT22;58633;49.470;11.004;2022-08-01T01:36:00;22.80;53.60
6824;DHT22;58633;49.470;11.004;2022-08-01T01:38:29;22.80;53.40
6824;DHT22;58633;49.470;11.004;2022-08-01T01:40:57;22.80;53.30
6824;DHT22;58633;49.470;11.004;2022-08-01T01:43:24;22.70;53.30
6824;DHT22;58633;49.470;11.004;2022-08-01T01:45:52;23.00;53.50
6824;DHT22;58633;49.470;11.004;2022-08-01T01:48:20;22.80;53.20
6824;DHT22;58633;49.470;11.004;2022-08-01T01:53:20;23.00;53.40
6824;DHT22;58633;49.470;11.004;2022-08-01T01:55:48;22.90;53.30
6824;DHT22;58633;49.470;11.004;2022-08-01T01:58:16;23.10;53.40
6824;DHT22;58633;49.470;11.004;2022-08-01T02:00:44;23.20;53.50
6824;DHT22;58633;49.470;11.004;2022-08-01T02:03:11;22.90;53.20
6824;DHT22;58633;49.470;11.004;2022-08-01T02:05:38;22.70;53.00
6824;DHT22;58633;49.470;11.004;2022-08-01T02:08:06;23.00;53.30
6824;DHT22;58633;49.470;11.004;2022-08-01T02:10:34;23.00;53.20
6824;DHT22;58633;49.470;11.004;2022-08-01T02:13:03;23.10;53.30
6824;DHT22;58633;49.470;11.004;2022-08-01T02:15:30;23.00;53.30
6824;DHT22;58633;49.470;11.004;2022-08-01T02:17:58;23.20;53.40
6824;DHT22;58633;49.470;11.004;2022-08-01T02:20:28;23.10;53.40
6824;DHT22;58633;49.470;11.004;2022-08-01T02:22:58;23.20;53.50
6824;DHT22;58633;49.470;11.004;2022-08-01T02:25:49;23.00;53.40
6824;DHT22;58633;49.470;11.004;2022-08-01T02:28:25;22.60;53.10
6824;DHT22;58633;49.470;11.004;2022-08-01T02:30:59;23.10;53.60
6824;DHT22;58633;49.470;11.004;2022-08-01T02:33:33;22.90;53.50
6824;DHT22;58633;49.470;11.004;2022-08-01T02:36:01;22.90;53.50
6824;DHT22;58633;49.470;11.004;2022-08-01T02:38:28;22.80;53.50
6824;DHT22;58633;49.470;11.004;2022-08-01T02:40:58;22.90;53.60
6824;DHT22;58633;49.470;11.004;2022-08-01T02:43:26;22.90;53.70
6824;DHT22;58633;49.470;11.004;2022-08-01T02:45:58;23.00;53.80
6824;DHT22;58633;49.470;11.004;2022-08-01T02:48:25;22.80;53.60
6824;DHT22;58633;49.470;11.004;2022-08-01T02:50:54;22.80;53.80
6824;DHT22;58633;49.470;11.004;2022-08-01T02:53:22;22.70;53.90
6824;DHT22;58633;49.470;11.004;2022-08-01T02:55:49;22.70;54.00
6824;DHT22;58633;49.470;11.004;2022-08-01T02:58:17;22.60;53.90
6824;DHT22;58633;49.470;11.004;2022-08-01T03:00:44;22.50;54.00
6824;DHT22;58633;49.470;11.004;2022-08-01T03:08:06;22.70;54.30
6824;DHT22;58633;49.470;11.004;2022-08-01T03:13:01;22.60;54.40
6824;DHT22;58633;49.470;11.004;2022-08-01T03:15:31;22.60;54.60
6824;DHT22;58633;49.470;11.004;2022-08-01T03:17:59;22.60;54.70
6824;DHT22;58633;49.470;11.004;2022-08-01T03:20:25;22.40;54.60
6824;DHT22;58633;49.470;11.004;2022-08-01T03:22:53;22.50;54.90
6824;DHT22;58633;49.470;11.004;2022-08-01T03:25:20;22.40;54.90
6824;DHT22;58633;49.470;11.004;2022-08-01T03:27:51;22.50;55.10
6824;DHT22;58633;49.470;11.004;2022-08-01T03:30:19;22.40;55.10
6824;DHT22;58633;49.470;11.004;2022-08-01T03:32:45;22.80;55.50
6824;DHT22;58633;49.470;11.004;2022-08-01T03:37:46;22.30;55.40
6824;DHT22;58633;49.470;11.004;2022-08-01T03:40:30;22.50;55.70
6824;DHT22;58633;49.470;11.004;2022-08-01T03:43:04;22.30;55.60
6824;DHT22;58633;49.470;11.004;2022-08-01T03:45:34;22.30;55.70
6824;DHT22;58633;49.470;11.004;2022-08-01T03:48:03;22.20;55.70
6824;DHT22;58633;49.470;11.004;2022-08-01T03:50:30;22.30;55.90
6824;DHT22;58633;49.470;11.004;2022-08-01T03:53:00;22.20;55.80
6824;DHT22;58633;49.470;11.004;2022-08-01T03:55:27;22.30;56.00
6824;DHT22;58633;49.470;11.004;2022-08-01T04:00:20;22.30;56.20
6824;DHT22;58633;49.470;11.004;2022-08-01T04:02:48;22.30;56.60
6824;DHT22;58633;49.470;11.004;2022-08-01T04:05:15;22.20;56.60
6824;DHT22;58633;49.470;11.004;2022-08-01T04:07:45;22.10;56.50
6824;DHT22;58633;49.470;11.004;2022-08-01T04:10:12;22.00;56.50
6824;DHT22;58633;49.470;11.004;2022-08-01T04:15:05;21.90;56.50
6824;DHT22;58633;49.470;11.004;2022-08-01T04:22:22;22.00;56.80
6824;DHT22;58633;49.470;11.004;2022-08-01T04:24:51;22.20;57.10
6824;DHT22;58633;49.470;11.004;2022-08-01T04:27:31;22.10;57.20
6824;DHT22;58633;49.470;11.004;2022-08-01T04:29:59;21.80;57.10
6824;DHT22;58633;49.470;11.004;2022-08-01T04:32:26;22.20;57.40
6824;DHT22;58633;49.470;11.004;2022-08-01T04:34:54;22.00;57.40
6824;DHT22;58633;49.470;11.004;2022-08-01T04:37:22;21.60;57.20
6824;DHT22;58633;49.470;11.004;2022-08-01T04:39:49;22.00;57.70
6824;DHT22;58633;49.470;11.004;2022-08-01T04:44:44;22.00;57.90
6824;DHT22;58633;49.470;11.004;2022-08-01T04:47:11;21.90;58.00
6824;DHT22;58633;49.470;11.004;2022-08-01T04:49:37;21.60;57.80
6824;DHT22;58633;49.470;11.004;2022-08-01T04:52:04;21.50;57.80
6824;DHT22;58633;49.470;11.004;2022-08-01T04:54:32;22.00;58.40
6824;DHT22;58633;49.470;11.004;2022-08-01T04:57:00;22.00;58.50
6824;DHT22;58633;49.470;11.004;2022-08-01T04:59:27;22.00;58.50
6824;DHT22;58633;49.470;11.004;2022-08-01T05:04:32;21.70;58.30
6824;DHT22;58633;49.470;11.004;2022-08-01T05:06:58;21.80;58.40
6824;DHT22;58633;49.470;11.004;2022-08-01T05:09:23;22.00;58.70
6824;DHT22;58633;49.470;11.004;2022-08-01T05:11:49;21.40;58.20
6824;DHT22;58633;49.470;11.004;2022-08-01T05:14:14;22.10;59.00
6824;DHT22;58633;49.470;11.004;2022-08-01T05:16:40;22.10;58.90
6824;DHT22;58633;49.470;11.004;2022-08-01T05:19:07;22.10;59.00
6824;DHT22;58633;49.470;11.004;2022-08-01T05:21:33;22.20;58.90
6824;DHT22;58633;49.470;11.004;2022-08-01T05:26:25;22.20;58.80
6824;DHT22;58633;49.470;11.004;2022-08-01T05:31:18;22.20;58.90
6824;DHT22;58633;49.470;11.004;2022-08-01T05:33:44;22.40;59.00
6824;DHT22;58633;49.470;11.004;2022-08-01T05:36:09;22.70;59.30
6824;DHT22;58633;49.470;11.004;2022-08-01T05:38:35;22.50;59.30
6824;DHT22;58633;49.470;11.004;2022-08-01T05:41:01;22.40;59.20
6824;DHT22;58633;49.470;11.004;2022-08-01T05:45:52;22.60;59.40
6824;DHT22;58633;49.470;11.004;2022-08-01T05:48:18;22.60;59.30
6824;DHT22;58633;49.470;11.004;2022-08-01T05:50:43;22.50;59.40
6824;DHT22;58633;49.470;11.004;2022-08-01T05:53:10;22.50;59.30
6824;DHT22;58633;49.470;11.004;2022-08-01T05:55:35;22.50;59.40
6824;DHT22;58633;49.470;11.004;2022-08-01T05:58:02;22.50;59.40
6824;DHT22;58633;49.470;11.004;2022-08-01T06:00:27;22.00;59.10
6824;DHT22;58633;49.470;11.004;2022-08-01T06:02:53;22.60;59.60
6824;DHT22;58633;49.470;11.004;2022-08-01T06:05:19;22.50;59.60
6824;DHT22;58633;49.470;11.004;2022-08-01T06:10:10;22.40;60.00
6824;DHT22;58633;49.470;11.004;2022-08-01T06:12:36;22.60;60.30
6824;DHT22;58633;49.470;11.004;2022-08-01T06:15:03;22.70;60.50
6824;DHT22;58633;49.470;11.004;2022-08-01T06:17:28;22.60;60.50
6824;DHT22;58633;49.470;11.004;2022-08-01T06:22:21;22.60;60.80
6824;DHT22;58633;49.470;11.004;2022-08-01T06:24:46;22.60;61.10
6824;DHT22;58633;49.470;11.004;2022-08-01T06:27:12;22.60;61.10
6824;DHT22;58633;49.470;11.004;2022-08-01T06:29:37;21.70;60.30
6824;DHT22;58633;49.470;11.004;2022-08-01T06:32:03;22.70;61.00
6824;DHT22;58633;49.470;11.004;2022-08-01T06:34:29;22.80;61.00
6824;DHT22;58633;49.470;11.004;2022-08-01T06:36:55;22.80;61.10
6824;DHT22;58633;49.470;11.004;2022-08-01T06:39:21;22.70;60.90
6824;DHT22;58633;49.470;11.004;2022-08-01T06:41:46;22.80;61.00
6824;DHT22;58633;49.470;11.004;2022-08-01T06:44:12;22.90;60.90
6824;DHT22;58633;49.470;11.004;2022-08-01T06:46:39;23.10;60.80
6824;DHT22;58633;49.470;11.004;2022-08-01T06:53:57;23.00;60.60
6824;DHT22;58633;49.470;11.004;2022-08-01T06:56:22;23.00;60.50
6824;DHT22;58633;49.470;11.004;2022-08-01T06:58:50;23.20;60.40
6824;DHT22;58633;49.470;11.004;2022-08-01T07:03:42;23.00;60.20
6824;DHT22;58633;49.470;11.004;2022-08-01T07:06:08;23.10;60.60
6824;DHT22;58633;49.470;11.004;2022-08-01T07:13:27;23.20;60.20
6824;DHT22;58633;49.470;11.004;2022-08-01T07:15:53;23.30;60.20
6824;DHT22;58633;49.470;11.004;2022-08-01T07:25:38;23.20;59.80
6824;DHT22;58633;49.470;11.004;2022-08-01T07:28:05;23.40;60.10
6824;DHT22;58633;49.470;11.004;2022-08-01T07:30:31;23.20;60.10
6824;DHT22;58633;49.470;11.004;2022-08-01T07:32:56;23.40;60.20
6824;DHT22;58633;49.470;11.004;2022-08-01T07:35:22;23.40;60.30
6824;DHT22;58633;49.470;11.004;2022-08-01T07:37:49;23.40;60.30
6824;DHT22;58633;49.470;11.004;2022-08-01T07:40:15;23.40;60.30
6824;DHT22;58633;49.470;11.004;2022-08-01T07:42:42;23.40;60.20
6824;DHT22;58633;49.470;11.004;2022-08-01T07:45:09;23.40;60.00
6824;DHT22;58633;49.470;11.004;2022-08-01T07:47:35;23.00;59.70
6824;DHT22;58633;49.470;11.004;2022-08-01T07:52:29;23.20;59.70
6824;DHT22;58633;49.470;11.004;2022-08-01T07:54:55;23.30;59.80
6824;DHT22;58633;49.470;11.004;2022-08-01T07:59:49;23.80;59.90
6824;DHT22;58633;49.470;11.004;2022-08-01T08:02:16;24.00;60.00
6824;DHT22;58633;49.470;11.004;2022-08-01T08:04:41;23.70;59.60
6824;DHT22;58633;49.470;11.004;2022-08-01T08:07:08;23.80;59.50
6824;DHT22;58633;49.470;11.004;2022-08-01T08:09:33;23.70;59.40
6824;DHT22;58633;49.470;11.004;2022-08-01T08:14:25;23.70;59.40
6824;DHT22;58633;49.470;11.004;2022-08-01T08:16:52;23.80;59.20
6824;DHT22;58633;49.470;11.004;2022-08-01T08:21:43;23.90;59.20
6824;DHT22;58633;49.470;11.004;2022-08-01T08:26:52;24.20;59.30
6824;DHT22;58633;49.470;11.004;2022-08-01T08:29:19;23.90;58.70
6824;DHT22;58633;49.470;11.004;2022-08-01T08:31:45;24.20;58.80
6824;DHT22;58633;49.470;11.004;2022-08-01T08:34:11;24.30;58.70
6824;DHT22;58633;49.470;11.004;2022-08-01T08:36:37;24.00;58.40
6824;DHT22;58633;49.470;11.004;2022-08-01T08:39:03;24.20;58.50
6824;DHT22;58633;49.470;11.004;2022-08-01T08:41:35;24.00;58.20
6824;DHT22;58633;49.470;11.004;2022-08-01T08:44:05;24.30;58.40
6824;DHT22;58633;49.470;11.004;2022-08-01T08:46:33;24.30;58.40
6824;DHT22;58633;49.470;11.004;2022-08-01T08:49:01;24.30;58.10
6824;DHT22;58633;49.470;11.004;2022-08-01T08:51:28;24.40;58.10
6824;DHT22;58633;49.470;11.004;2022-08-01T08:53:56;24.10;57.60
6824;DHT22;58633;49.470;11.004;2022-08-01T08:56:23;24.40;57.90
6824;DHT22;58633;49.470;11.004;2022-08-01T08:58:50;23.90;57.60
6824;DHT22;58633;49.470;11.004;2022-08-01T09:01:17;24.20;58.00
6824;DHT22;58633;49.470;11.004;2022-08-01T09:03:44;24.00;57.80
6824;DHT22;58633;49.470;11.004;2022-08-01T09:06:10;24.40;57.90
6824;DHT22;58633;49.470;11.004;2022-08-01T09:08:36;25.10;58.40
6824;DHT22;58633;49.470;11.004;2022-08-01T09:11:03;24.50;57.80
6824;DHT22;58633;49.470;11.004;2022-08-01T09:13:28;24.70;57.70
6824;DHT22;58633;49.470;11.004;2022-08-01T09:23:46;24.70;56.90
6824;DHT22;58633;49.470;11.004;2022-08-01T09:26:19;24.70;56.90
6824;DHT22;58633;49.470;11.004;2022-08-01T09:28:47;24.80;56.70
6824;DHT22;58633;49.470;11.004;2022-08-01T09:31:17;24.90;56.50
6824;DHT22;58633;49.470;11.004;2022-08-01T09:36:18;24.90;56.20
6824;DHT22;58633;49.470;11.004;2022-08-01T09:38:44;25.00;56.10
6824;DHT22;58633;49.470;11.004;2022-08-01T09:43:37;24.90;55.90
6824;DHT22;58633;49.470;11.004;2022-08-01T09:46:10;25.10;56.00
6824;DHT22;58633;49.470;11.004;2022-08-01T09:48:55;25.10;55.60
6824;DHT22;58633;49.470;11.004;2022-08-01T09:51:28;25.20;55.60
6824;DHT22;58633;49.470;11.004;2022-08-01T09:53:54;25.30;55.50
6824;DHT22;58633;49.470;11.004;2022-08-01T09:56:22;25.30;55.30
6824;DHT22;58633;49.470;11.004;2022-08-01T09:58:53;25.60;55.30
6824;DHT22;58633;49.470;11.004;2022-08-01T10:01:20;25.50;55.00
6824;DHT22;58633;49.470;11.004;2022-08-01T10:03:46;25.30;54.80
6824;DHT22;58633;49.470;11.004;2022-08-01T10:06:22;25.40;54.10
6824;DHT22;58633;49.470;11.004;2022-08-01T10:08:48;25.70;53.70
6824;DHT22;58633;49.470;11.004;2022-08-01T10:13:40;25.80;53.00
6824;DHT22;58633;49.470;11.004;2022-08-01T10:16:07;26.00;52.70
6824;DHT22;58633;49.470;11.004;2022-08-01T10:18:34;25.90;52.40
6824;DHT22;58633;49.470;11.004;2022-08-01T10:21:01;25.90;52.60
6824;DHT22;58633;49.470;11.004;2022-08-01T10:23:27;25.90;52.50
6824;DHT22;58633;49.470;11.004;2022-08-01T10:25:55;25.70;52.60
6824;DHT22;58633;49.470;11.004;2022-08-01T10:28:23;25.60;52.70
6824;DHT22;58633;49.470;11.004;2022-08-01T10:33:17;25.90;52.30
6824;DHT22;58633;49.470;11.004;2022-08-01T10:35:45;26.20;51.80
6824;DHT22;58633;49.470;11.004;2022-08-01T10:38:11;26.60;52.10
6824;DHT22;58633;49.470;11.004;2022-08-01T10:40:37;26.30;51.90
6824;DHT22;58633;49.470;11.004;2022-08-01T10:45:30;26.70;51.80
6824;DHT22;58633;49.470;11.004;2022-08-01T10:48:08;26.60;51.30
6824;DHT22;58633;49.470;11.004;2022-08-01T10:50:42;26.90;51.00
6824;DHT22;58633;49.470;11.004;2022-08-01T10:58:12;26.80;50.50
6824;DHT22;58633;49.470;11.004;2022-08-01T11:00:38;26.90;50.60
6824;DHT22;58633;49.470;11.004;2022-08-01T11:05:35;26.80;50.90
6824;DHT22;58633;49.470;11.004;2022-08-01T11:08:03;26.60;50.70
6824;DHT22;58633;49.470;11.004;2022-08-01T11:10:41;26.80;51.00
6824;DHT22;58633;49.470;11.004;2022-08-01T11:15:41;26.90;50.80
6824;DHT22;58633;49.470;11.004;2022-08-01T11:20:59;26.70;50.40
6824;DHT22;58633;49.470;11.004;2022-08-01T11:23:26;27.00;50.50
6824;DHT22;58633;49.470;11.004;2022-08-01T11:28:26;27.00;50.10
6824;DHT22;58633;49.470;11.004;2022-08-01T11:41:33;27.20;49.50
6824;DHT22;58633;49.470;11.004;2022-08-01T11:52:08;27.30;49.50
6824;DHT22;58633;49.470;11.004;2022-08-01T11:57:06;27.60;49.30
6824;DHT22;58633;49.470;11.004;2022-08-01T12:02:04;27.60;49.10
6824;DHT22;58633;49.470;11.004;2022-08-01T12:07:16;27.40;48.90
6824;DHT22;58633;49.470;11.004;2022-08-01T12:09:42;27.00;48.60
6824;DHT22;58633;49.470;11.004;2022-08-01T12:12:09;27.50;48.80
6824;DHT22;58633;49.470;11.004;2022-08-01T12:14:34;27.90;49.00
6824;DHT22;58633;49.470;11.004;2022-08-01T12:17:01;27.40;48.60
6824;DHT22;58633;49.470;11.004;2022-08-01T12:19:26;27.50;48.30
6824;DHT22;58633;49.470;11.004;2022-08-01T12:22:23;28.00;48.10
6824;DHT22;58633;49.470;11.004;2022-08-01T12:24:50;27.90;47.70
6824;DHT22;58633;49.470;11.004;2022-08-01T12:27:27;28.20;47.70
6824;DHT22;58633;49.470;11.004;2022-08-01T12:32:31;29.10;46.30
6824;DHT22;58633;49.470;11.004;2022-08-01T12:37:41;30.70;43.90
6824;DHT22;58633;49.470;11.004;2022-08-01T12:40:22;31.00;43.40
6824;DHT22;58633;49.470;11.004;2022-08-01T12:43:01;31.00;44.00
6824;DHT22;58633;49.470;11.004;2022-08-01T12:45:31;30.60;43.90
6824;DHT22;58633;49.470;11.004;2022-08-01T12:47:58;30.40;44.60
6824;DHT22;58633;49.470;11.004;2022-08-01T12:50:28;30.30;44.10
6824;DHT22;58633;49.470;11.004;2022-08-01T12:52:55;30.20;44.30
6824;DHT22;58633;49.470;11.004;2022-08-01T12:55:25;30.30;43.90
6824;DHT22;58633;49.470;11.004;2022-08-01T12:58:05;30.10;43.60
6824;DHT22;58633;49.470;11.004;2022-08-01T13:00:31;30.00;43.80
6824;DHT22;58633;49.470;11.004;2022-08-01T13:05:52;29.70;44.30
6824;DHT22;58633;49.470;11.004;2022-08-01T13:08:29;29.40;44.60
6824;DHT22;58633;49.470;11.004;2022-08-01T13:11:03;29.50;45.00
6824;DHT22;58633;49.470;11.004;2022-08-01T13:13:43;29.40;45.20
6824;DHT22;58633;49.470;11.004;2022-08-01T13:16:12;29.60;45.60
6824;DHT22;58633;49.470;11.004;2022-08-01T13:18:38;29.20;45.60
6824;DHT22;58633;49.470;11.004;2022-08-01T13:21:08;29.40;46.00
6824;DHT22;58633;49.470;11.004;2022-08-01T13:26:03;29.20;45.90
6824;DHT22;58633;49.470;11.004;2022-08-01T13:28:29;29.20;46.00
6824;DHT22;58633;49.470;11.004;2022-08-01T13:31:05;29.10;46.00
6824;DHT22;58633;49.470;11.004;2022-08-01T13:33:45;29.10;46.10
6824;DHT22;58633;49.470;11.004;2022-08-01T13:36:11;28.90;46.10
6824;DHT22;58633;49.470;11.004;2022-08-01T13:43:49;28.80;46.20
6824;DHT22;58633;49.470;11.004;2022-08-01T13:46:14;29.00;46.30
6824;DHT22;58633;49.470;11.004;2022-08-01T13:48:40;28.90;46.00
6824;DHT22;58633;49.470;11.004;2022-08-01T13:51:05;28.90;45.90
6824;DHT22;58633;49.470;11.004;2022-08-01T13:53:31;29.30;45.80
6824;DHT22;58633;49.470;11.004;2022-08-01T13:55:57;29.50;45.60
6824;DHT22;58633;49.470;11.004;2022-08-01T13:58:23;29.90;45.00
6824;DHT22;58633;49.470;11.004;2022-08-01T14:05:43;29.60;44.70
6824;DHT22;58633;49.470;11.004;2022-08-01T14:08:09;29.40;44.60
6824;DHT22;58633;49.470;11.004;2022-08-01T14:10:35;29.70;44.30
6824;DHT22;58633;49.470;11.004;2022-08-01T14:13:00;29.70;44.10
6824;DHT22;58633;49.470;11.004;2022-08-01T14:15:26;29.90;44.00
6824;DHT22;58633;49.470;11.004;2022-08-01T14:17:52;29.20;43.10
6824;DHT22;58633;49.470;11.004;2022-08-01T14:20:17;29.90;43.60
6824;DHT22;58633;49.470;11.004;2022-08-01T14:22:45;29.80;43.10
6824;DHT22;58633;49.470;11.004;2022-08-01T14:25:11;29.90;43.00
6824;DHT22;58633;49.470;11.004;2022-08-01T14:27:36;29.80;43.00
6824;DHT22;58633;49.470;11.004;2022-08-01T14:30:04;29.90;43.00
6824;DHT22;58633;49.470;11.004;2022-08-01T14:32:29;29.80;43.00
6824;DHT22;58633;49.470;11.004;2022-08-01T14:34:55;29.90;42.90
6824;DHT22;58633;49.470;11.004;2022-08-01T14:37:23;30.10;42.70
6824;DHT22;58633;49.470;11.004;2022-08-01T14:44:40;30.70;42.40
6824;DHT22;58633;49.470;11.004;2022-08-01T14:47:07;31.00;41.60
6824;DHT22;58633;49.470;11.004;2022-08-01T14:49:32;30.80;41.30
6824;DHT22;58633;49.470;11.004;2022-08-01T14:51:58;30.50;41.30
6824;DHT22;58633;49.470;11.004;2022-08-01T14:54:23;30.70;41.40
6824;DHT22;58633;49.470;11.004;2022-08-01T14:56:49;30.70;41.70
6824;DHT22;58633;49.470;11.004;2022-08-01T14:59:16;30.30;41.60
6824;DHT22;58633;49.470;11.004;2022-08-01T15:01:42;30.30;41.80
6824;DHT22;58633;49.470;11.004;2022-08-01T15:06:33;30.40;42.40
6824;DHT22;58633;49.470;11.004;2022-08-01T15:13:51;30.50;41.60
6824;DHT22;58633;49.470;11.004;2022-08-01T15:16:36;30.90;41.80
6824;DHT22;58633;49.470;11.004;2022-08-01T15:19:02;30.70;41.70
6824;DHT22;58633;49.470;11.004;2022-08-01T15:21:28;31.00;41.80
6824;DHT22;58633;49.470;11.004;2022-08-01T15:23:54;30.80;41.80
6824;DHT22;58633;49.470;11.004;2022-08-01T15:26:20;31.10;41.80
6824;DHT22;58633;49.470;11.004;2022-08-01T15:28:45;31.10;41.70
6824;DHT22;58633;49.470;11.004;2022-08-01T15:31:11;31.00;41.60
6824;DHT22;58633;49.470;11.004;2022-08-01T15:33:36;31.00;41.40
6824;DHT22;58633;49.470;11.004;2022-08-01T15:36:03;31.00;41.10
6824;DHT22;58633;49.470;11.004;2022-08-01T15:38:29;31.20;40.90
6824;DHT22;58633;49.470;11.004;2022-08-01T15:40:54;31.30;39.80
6824;DHT22;58633;49.470;11.004;2022-08-01T15:43:20;31.80;40.10
6824;DHT22;58633;49.470;11.004;2022-08-01T15:48:12;31.40;39.80
6824;DHT22;58633;49.470;11.004;2022-08-01T15:50:38;31.30;40.10
6824;DHT22;58633;49.470;11.004;2022-08-01T15:53:04;31.40;40.40
6824;DHT22;58633;49.470;11.004;2022-08-01T15:55:31;31.20;40.20
6824;DHT22;58633;49.470;11.004;2022-08-01T15:57:57;31.20;40.10
6824;DHT22;58633;49.470;11.004;2022-08-01T16:00:23;31.10;40.10
6824;DHT22;58633;49.470;11.004;2022-08-01T16:02:48;31.30;40.20
6824;DHT22;58633;49.470;11.004;2022-08-01T16:05:14;31.10;40.20
6824;DHT22;58633;49.470;11.004;2022-08-01T16:07:39;31.00;40.50
6824;DHT22;58633;49.470;11.004;2022-08-01T16:10:05;31.00;40.80
6824;DHT22;58633;49.470;11.004;2022-08-01T16:12:31;30.70;40.90
6824;DHT22;58633;49.470;11.004;2022-08-01T16:14:57;30.90;41.40
6824;DHT22;58633;49.470;11.004;2022-08-01T16:17:23;30.90;41.80
6824;DHT22;58633;49.470;11.004;2022-08-01T16:19:49;30.90;42.00
6824;DHT22;58633;49.470;11.004;2022-08-01T16:24:41;30.70;42.30
6824;DHT22;58633;49.470;11.004;2022-08-01T16:27:06;30.60;42.30
6824;DHT22;58633;49.470;11.004;2022-08-01T16:29:32;30.60;42.40
6824;DHT22;58633;49.470;11.004;2022-08-01T16:31:58;30.30;42.30
6824;DHT22;58633;49.470;11.004;2022-08-01T16:34:24;30.40;42.40
6824;DHT22;58633;49.470;11.004;2022-08-01T16:36:51;30.50;42.50
6824;DHT22;58633;49.470;11.004;2022-08-01T16:39:17;30.50;42.70
6824;DHT22;58633;49.470;11.004;2022-08-01T16:44:10;30.30;42.70
6824;DHT22;58633;49.470;11.004;2022-08-01T16:46:35;30.20;42.70
6824;DHT22;58633;49.470;11.004;2022-08-01T16:51:27;30.10;42.70
6824;DHT22;58633;49.470;11.004;2022-08-01T16:56:19;30.00;43.50
6824;DHT22;58633;49.470;11.004;2022-08-01T16:58:45;29.60;43.60
6824;DHT22;58633;49.470;11.004;2022-08-01T17:01:11;29.60;43.90
6824;DHT22;58633;49.470;11.004;2022-08-01T17:03:37;29.60;44.10
6824;DHT22;58633;49.470;11.004;2022-08-01T17:06:03;29.50;44.20
6824;DHT22;58633;49.470;11.004;2022-08-01T17:08:29;29.70;44.70
6824;DHT22;58633;49.470;11.004;2022-08-01T17:10:54;29.50;44.70
6824;DHT22;58633;49.470;11.004;2022-08-01T17:13:20;29.40;44.90
6824;DHT22;58633;49.470;11.004;2022-08-01T17:15:48;29.40;44.90
6824;DHT22;58633;49.470;11.004;2022-08-01T17:18:15;29.50;45.30
6824;DHT22;58633;49.470;11.004;2022-08-01T17:23:09;29.10;45.40
6824;DHT22;58633;49.470;11.004;2022-08-01T17:25:35;29.00;45.40
6824;DHT22;58633;49.470;11.004;2022-08-01T17:28:01;29.10;45.50
6824;DHT22;58633;49.470;11.004;2022-08-01T17:30:28;28.90;45.50
6824;DHT22;58633;49.470;11.004;2022-08-01T17:32:54;29.00;45.80
6824;DHT22;58633;49.470;11.004;2022-08-01T17:35:19;28.70;45.70
6824;DHT22;58633;49.470;11.004;2022-08-01T17:37:45;28.80;45.80
6824;DHT22;58633;49.470;11.004;2022-08-01T17:40:11;28.70;45.90
6824;DHT22;58633;49.470;11.004;2022-08-01T17:42:37;28.50;45.90
6824;DHT22;58633;49.470;11.004;2022-08-01T17:45:05;28.60;46.10
6824;DHT22;58633;49.470;11.004;2022-08-01T17:47:31;28.30;46.00
6824;DHT22;58633;49.470;11.004;2022-08-01T17:49:58;28.80;46.50
6824;DHT22;58633;49.470;11.004;2022-08-01T17:52:26;28.20;46.30
6824;DHT22;58633;49.470;11.004;2022-08-01T17:57:18;28.20;46.50
6824;DHT22;58633;49.470;11.004;2022-08-01T17:59:43;28.50;46.80
6824;DHT22;58633;49.470;11.004;2022-08-01T18:02:09;28.40;46.70
6824;DHT22;58633;49.470;11.004;2022-08-01T18:04:35;28.30;46.60
6824;DHT22;58633;49.470;11.004;2022-08-01T18:07:00;28.20;46.60
6824;DHT22;58633;49.470;11.004;2022-08-01T18:09:26;28.00;46.60
6824;DHT22;58633;49.470;11.004;2022-08-01T18:11:52;27.90;46.70
6824;DHT22;58633;49.470;11.004;2022-08-01T18:14:17;28.00;47.00
6824;DHT22;58633;49.470;11.004;2022-08-01T18:16:43;28.00;47.10
6824;DHT22;58633;49.470;11.004;2022-08-01T18:19:08;27.70;47.00
6824;DHT22;58633;49.470;11.004;2022-08-01T18:21:34;27.90;47.40
6824;DHT22;58633;49.470;11.004;2022-08-01T18:26:26;28.20;47.90
6824;DHT22;58633;49.470;11.004;2022-08-01T18:28:51;28.30;48.10
6824;DHT22;58633;49.470;11.004;2022-08-01T18:31:17;27.70;48.00
6824;DHT22;58633;49.470;11.004;2022-08-01T18:33:44;27.50;48.10
6824;DHT22;58633;49.470;11.004;2022-08-01T18:36:11;27.80;48.40
6824;DHT22;58633;49.470;11.004;2022-08-01T18:43:30;27.30;48.60
6824;DHT22;58633;49.470;11.004;2022-08-01T18:48:21;27.20;48.70
6824;DHT22;58633;49.470;11.004;2022-08-01T18:50:47;27.50;48.90
6824;DHT22;58633;49.470;11.004;2022-08-01T18:53:12;28.30;49.50
6824;DHT22;58633;49.470;11.004;2022-08-01T18:55:38;27.40;49.10
6824;DHT22;58633;49.470;11.004;2022-08-01T18:58:04;27.90;49.50
6824;DHT22;58633;49.470;11.004;2022-08-01T19:00:29;27.20;49.10
6824;DHT22;58633;49.470;11.004;2022-08-01T19:02:55;27.30;49.30
6824;DHT22;58633;49.470;11.004;2022-08-01T19:05:20;27.30;49.60
6824;DHT22;58633;49.470;11.004;2022-08-01T19:07:46;27.20;49.60
6824;DHT22;58633;49.470;11.004;2022-08-01T19:10:13;27.00;49.60
6824;DHT22;58633;49.470;11.004;2022-08-01T19:12:38;27.00;49.80